createdAt,value
2022-09-06T00:03:13.028Z,11.40
2022-09-06T00:08:15.904Z,11.50
2022-09-06T00:13:18.631Z,11.60
2022-09-06T00:18:21.408Z,11.60
2022-09-06T00:23:24.476Z,11.70
2022-09-06T00:28:27.227Z,11.70
2022-09-06T00:33:29.992Z,11.70
2022-09-06T00:38:33.074Z,11.70
2022-09-06T00:43:36.144Z,11.70
2022-09-06T00:48:40.581Z,11.70
2022-09-06T00:53:43.772Z,11.60
2022-09-06T00:58:48.188Z,11.50
2022-09-06T01:03:50.962Z,11.40
2022-09-06T01:09:13.830Z,11.30
2022-09-06T01:14:34.597Z,11.30
2022-09-06T01:19:52.712Z,11.30
2022-09-06T01:25:10.759Z,11.20
2022-09-06T01:30:17.857Z,11.20
2022-09-06T01:35:35.773Z,11.00
2022-09-06T01:40:38.600Z,11.10
2022-09-06T01:46:05.407Z,11.10
2022-09-06T01:51:39.301Z,11.10
2022-09-06T01:57:00.904Z,11.10
2022-09-06T02:02:29.611Z,11.10
2022-09-06T02:07:34.521Z,11.10
2022-09-06T02:12:40.986Z,10.90
2022-09-06T02:17:58.544Z,11.00
2022-09-06T02:23:04.836Z,10.90
2022-09-06T02:28:09.403Z,10.90
2022-09-06T02:33:18.428Z,10.90
2022-09-06T02:38:27.585Z,10.90
2022-09-06T02:43:30.732Z,10.80
2022-09-06T02:48:33.437Z,10.70
2022-09-06T02:53:36.980Z,10.60
2022-09-06T02:58:40.426Z,10.40
2022-09-06T03:03:43.203Z,10.10
2022-09-06T03:08:45.827Z,9.90
2022-09-06T03:13:51.313Z,9.60
2022-09-06T03:18:54.090Z,9.30
2022-09-06T03:23:56.821Z,9.20
2022-09-06T03:28:59.693Z,9.00
2022-09-06T03:34:02.402Z,8.90
2022-09-06T03:39:05.250Z,8.60
2022-09-06T03:44:07.914Z,8.60
2022-09-06T03:49:10.692Z,8.50
2022-09-06T03:54:13.386Z,8.40
2022-09-06T03:59:16.163Z,8.30
2022-09-06T04:04:18.843Z,8.30
2022-09-06T04:09:21.979Z,8.10
2022-09-06T04:14:24.811Z,8.10
2022-09-06T04:19:27.520Z,8.20
2022-09-06T04:24:30.217Z,8.10
2022-09-06T04:29:33.314Z,8.20
2022-09-06T04:34:36.087Z,8.20
2022-09-06T04:39:38.854Z,8.30
2022-09-06T04:44:41.608Z,8.50
2022-09-06T04:49:44.954Z,8.60
2022-09-06T04:54:47.724Z,8.60
2022-09-06T04:59:50.467Z,8.70
2022-09-06T05:04:53.883Z,9.10
2022-09-06T05:09:56.971Z,9.50
2022-09-06T05:14:59.657Z,9.70
2022-09-06T05:20:02.499Z,9.90
2022-09-06T05:25:06.073Z,10.20
2022-09-06T05:30:09.607Z,10.40
2022-09-06T05:35:12.552Z,10.50
2022-09-06T05:40:15.457Z,10.60
2022-09-06T05:45:18.335Z,11.00
2022-09-06T05:50:21.394Z,11.30
2022-09-06T05:55:24.174Z,11.70
2022-09-06T06:00:27.044Z,11.90
2022-09-06T06:05:29.853Z,12.30
2022-09-06T06:10:36.646Z,12.60
2022-09-06T06:15:41.444Z,13.00
2022-09-06T06:20:44.312Z,13.40
2022-09-06T06:25:47.033Z,13.60
2022-09-06T06:30:50.233Z,13.60
2022-09-06T06:36:21.974Z,13.50
2022-09-06T06:41:30.255Z,13.50
2022-09-06T06:46:38.297Z,13.20
2022-09-06T06:51:41.703Z,13.50
2022-09-06T06:56:45.833Z,13.70
2022-09-06T07:01:50.194Z,14.30
2022-09-06T07:12:18.748Z,14.50
2022-09-06T07:17:21.557Z,14.80
2022-09-06T07:22:24.346Z,15.10
2022-09-06T07:32:49.966Z,14.90
2022-09-06T07:38:00.537Z,15.30
2022-09-06T07:43:03.364Z,15.60
2022-09-06T07:48:06.414Z,16.00
2022-09-06T07:53:14.062Z,16.40
2022-09-06T07:58:18.595Z,16.60
2022-09-06T08:03:21.659Z,16.90
2022-09-06T08:13:51.597Z,18.00
2022-09-06T08:18:57.019Z,17.90
2022-09-06T08:24:02.160Z,18.60
2022-09-06T08:29:07.907Z,18.70
2022-09-06T08:34:13.019Z,19.70
2022-09-06T08:39:17.019Z,20.50
2022-09-06T08:50:16.986Z,19.70
2022-09-06T08:55:36.768Z,20.80
2022-09-06T09:00:42.345Z,21.90
2022-09-06T09:05:50.448Z,21.40
2022-09-06T09:11:03.635Z,22.50
2022-09-06T09:16:08.049Z,22.70
2022-09-06T09:21:11.832Z,21.90
2022-09-06T09:26:16.185Z,21.50
2022-09-06T09:31:36.552Z,21.50
2022-09-06T09:36:40.655Z,21.40
2022-09-06T09:41:44.036Z,23.50
2022-09-06T09:46:46.968Z,22.70
2022-09-06T09:52:10.473Z,21.20
2022-09-06T09:57:19.233Z,20.80
2022-09-06T10:02:52.772Z,20.20
2022-09-06T10:07:57.110Z,20.40
2022-09-06T10:13:22.447Z,20.60
2022-09-06T10:18:37.376Z,20.20
2022-09-06T10:29:14.788Z,20.80
2022-09-06T10:34:50.582Z,21.00
2022-09-06T10:40:06.812Z,20.80
2022-09-06T10:45:31.124Z,21.40
2022-09-06T10:50:42.180Z,21.30
2022-09-06T10:55:49.580Z,21.20
2022-09-06T11:00:53.726Z,21.50
2022-09-06T11:06:09.633Z,21.80
2022-09-06T11:11:19.985Z,21.80
2022-09-06T11:16:24.676Z,23.00
2022-09-06T11:21:39.625Z,24.40
2022-09-06T11:26:54.322Z,24.70
2022-09-06T11:32:18.367Z,24.40
2022-09-06T11:37:51.031Z,25.20
2022-09-06T11:42:53.782Z,24.50
2022-09-06T11:47:56.529Z,24.00
2022-09-06T11:53:06.898Z,23.50
2022-09-06T11:58:18.379Z,23.10
2022-09-06T12:04:07.060Z,24.40
2022-09-06T12:09:30.452Z,24.50
2022-09-06T12:14:47.105Z,24.30
2022-09-06T12:19:53.281Z,24.30
2022-09-06T12:25:01.846Z,23.40
2022-09-06T12:30:09.392Z,24.00
2022-09-06T12:40:49.974Z,25.00
2022-09-06T12:45:53.818Z,25.30
2022-09-06T12:51:07.660Z,25.30
2022-09-06T12:56:12.893Z,26.50
2022-09-06T13:01:27.210Z,24.70
2022-09-06T13:06:34.064Z,24.60
2022-09-06T13:11:40.035Z,24.20
2022-09-06T13:16:57.058Z,25.10
2022-09-06T13:22:00.616Z,25.00
2022-09-06T13:27:31.339Z,25.40
2022-09-06T13:32:35.590Z,24.00
2022-09-06T13:37:41.389Z,23.20
2022-09-06T13:42:44.308Z,23.40
2022-09-06T13:47:47.050Z,23.30
2022-09-06T13:52:49.877Z,23.00
2022-09-06T13:57:52.737Z,22.50
2022-09-06T14:02:56.020Z,22.30
2022-09-06T14:07:59.118Z,21.90
2022-09-06T14:13:01.896Z,21.80
2022-09-06T14:18:05.178Z,22.40
2022-09-06T14:23:08.721Z,23.40
2022-09-06T14:28:11.465Z,22.80
2022-09-06T14:33:14.295Z,22.20
2022-09-06T14:38:17.185Z,22.60
2022-09-06T14:43:20.044Z,22.20
2022-09-06T14:48:28.738Z,22.30
2022-09-06T14:53:40.449Z,22.10
2022-09-06T14:58:44.335Z,22.20
2022-09-06T15:03:51.781Z,22.50
2022-09-06T15:08:59.164Z,22.90
2022-09-06T15:14:04.624Z,23.00
2022-09-06T15:19:09.134Z,23.10
2022-09-06T15:24:12.435Z,23.10
2022-09-06T15:29:15.977Z,23.00
2022-09-06T15:34:23.984Z,23.30
2022-09-06T15:39:26.822Z,23.20
2022-09-06T15:44:29.953Z,22.70
2022-09-06T15:49:33.354Z,22.70
2022-09-06T15:54:54.355Z,22.60
2022-09-06T15:59:57.117Z,22.40
2022-09-06T16:04:59.946Z,22.40
2022-09-06T16:10:03.069Z,22.20
2022-09-06T16:15:06.785Z,21.80
2022-09-06T16:20:10.512Z,21.30
2022-09-06T16:25:13.262Z,20.80
2022-09-06T16:30:16.123Z,20.60
2022-09-06T16:35:19.592Z,20.10
2022-09-06T16:40:22.400Z,20.10
2022-09-06T16:45:25.314Z,19.80
2022-09-06T16:50:28.454Z,19.40
2022-09-06T16:55:31.326Z,19.00
2022-09-06T17:00:34.234Z,18.80
2022-09-06T17:05:37.186Z,18.50
2022-09-06T17:10:40.283Z,18.10
2022-09-06T17:16:01.604Z,17.80
2022-09-06T17:21:08.445Z,17.60
2022-09-06T17:26:11.321Z,17.20
2022-09-06T17:31:14.515Z,16.90
2022-09-06T17:36:23.975Z,16.50
2022-09-06T17:41:39.044Z,16.30
2022-09-06T17:46:57.017Z,16.10
2022-09-06T17:52:05.543Z,15.90
2022-09-06T17:57:08.344Z,15.80
2022-09-06T18:02:11.164Z,15.50
2022-09-06T18:07:14.079Z,15.50
2022-09-06T18:12:17.756Z,15.50
2022-09-06T18:17:20.586Z,15.30
2022-09-06T18:22:23.854Z,15.20
2022-09-06T18:27:26.627Z,15.20
2022-09-06T18:32:29.434Z,15.30
2022-09-06T18:37:36.025Z,15.30
2022-09-06T18:42:43.645Z,15.30
2022-09-06T18:47:46.518Z,15.10
2022-09-06T18:52:49.337Z,15.10
2022-09-06T18:57:52.247Z,15.00
2022-09-06T19:02:55.054Z,15.10
2022-09-06T19:07:57.882Z,15.20
2022-09-06T19:13:00.947Z,15.40
2022-09-06T19:18:03.755Z,15.40
2022-09-06T19:23:06.595Z,15.30
2022-09-06T19:28:09.314Z,15.20
2022-09-06T19:33:12.374Z,15.10
2022-09-06T19:38:15.194Z,15.00
2022-09-06T19:43:17.995Z,14.90
2022-09-06T19:48:20.798Z,14.80
2022-09-06T19:53:23.832Z,14.70
2022-09-06T19:58:26.847Z,14.60
2022-09-06T20:03:29.670Z,14.40
2022-09-06T20:08:35.202Z,14.40
2022-09-06T20:13:39.290Z,14.20
2022-09-06T20:18:42.360Z,14.10
2022-09-06T20:23:53.659Z,14.00
2022-09-06T20:28:58.280Z,13.90
2022-09-06T20:34:03.200Z,13.80
2022-09-06T20:39:06.170Z,13.60
2022-09-06T20:44:09.040Z,13.30
2022-09-06T20:49:12.360Z,13.00
2022-09-06T20:54:15.381Z,12.90
2022-09-06T20:59:18.166Z,12.70
2022-09-06T21:04:21.885Z,12.50
2022-09-06T21:09:24.599Z,12.40
2022-09-06T21:14:27.552Z,12.50
2022-09-06T21:19:30.355Z,12.80
2022-09-06T21:24:34.304Z,12.50
2022-09-06T21:29:37.088Z,12.50
2022-09-06T21:34:39.957Z,12.60
2022-09-06T21:39:42.937Z,12.40
2022-09-06T21:44:45.724Z,12.50
2022-09-06T21:49:48.441Z,12.50
2022-09-06T21:54:51.162Z,12.40
2022-09-06T21:59:53.903Z,12.30
2022-09-06T22:04:56.569Z,12.20
2022-09-06T22:09:59.435Z,12.10
2022-09-06T22:15:02.196Z,11.90
2022-09-06T22:20:06.344Z,11.80
2022-09-06T22:25:09.431Z,11.70
2022-09-06T22:30:13.000Z,11.70
2022-09-06T22:35:16.739Z,11.80
2022-09-06T22:40:19.533Z,11.90
2022-09-06T22:45:22.243Z,11.90
2022-09-06T22:50:25.559Z,11.80
2022-09-06T22:55:28.383Z,11.80
2022-09-06T23:00:36.134Z,11.80
2022-09-06T23:05:39.355Z,11.80
2022-09-06T23:10:44.568Z,11.80
2022-09-06T23:15:47.959Z,11.80
2022-09-06T23:20:50.656Z,11.60
2022-09-06T23:25:54.426Z,11.60
2022-09-06T23:30:57.123Z,11.60
2022-09-06T23:35:59.929Z,11.40
2022-09-06T23:41:03.735Z,11.40
2022-09-06T23:46:07.284Z,11.30
2022-09-06T23:51:10.655Z,11.30
2022-09-06T23:56:13.422Z,11.10
